Time;durP1;ratioP1;P1;durP2;ratioP2;P2;SDS_P1;SDS_P2;PMS_P1;PMS_P2;Temp;Humidity;BMP_temperature;BMP_pressure;BME280_temperature;BME280_humidity;BME280_pressure;Samples;Min_cycle;Max_cycle;Signal;HPM_P1;HPM_P2
2024/04/03 00:00:01;;;;;;;3.60;0.80;;;13.40;99.90;;;;;;5032658;28;20650;-75
2024/04/03 00:02:27;;;;;;;3.50;1.00;;;13.40;99.90;;;;;;5015902;28;20584;-76
2024/04/03 00:04:52;;;;;;;1.60;0.70;;;13.40;99.90;;;;;;5034831;28;20583;-78
2024/04/03 00:07:18;;;;;;;2.17;0.87;;;13.40;99.90;;;;;;5041191;28;20189;-82
2024/04/03 00:09:44;;;;;;;3.50;0.80;;;13.30;99.90;;;;;;5057160;28;20177;-79
2024/04/03 00:12:10;;;;;;;2.00;0.80;;;13.30;99.90;;;;;;5074030;28;20180;-79
2024/04/03 00:14:36;;;;;;;3.50;0.87;;;13.30;99.90;;;;;;5036571;28;20564;-76
2024/04/03 00:17:02;;;;;;;3.10;0.70;;;13.30;99.90;;;;;;5051959;28;20687;-76
2024/04/03 00:19:28;;;;;;;2.37;0.87;;;13.20;99.90;;;;;;5032106;28;20297;-76
2024/04/03 00:21:56;;;;;;;5.23;1.10;;;13.20;99.90;;;;;;5013384;28;21141;-76
2024/04/03 00:24:22;;;;;;;5.33;1.30;;;13.20;99.90;;;;;;5029894;28;20173;-78
2024/04/03 00:26:48;;;;;;;3.20;1.07;;;13.10;99.90;;;;;;5034594;28;20576;-78
2024/04/03 00:29:13;;;;;;;2.57;0.90;;;13.10;99.90;;;;;;5034072;28;20682;-78
2024/04/03 00:31:39;;;;;;;3.00;0.80;;;13.10;99.90;;;;;;5035811;28;20181;-78
2024/04/03 00:34:05;;;;;;;3.77;0.90;;;13.10;99.90;;;;;;5036031;28;20695;-78
2024/04/03 00:36:30;;;;;;;4.37;1.20;;;13.00;99.90;;;;;;5035771;28;20184;-78
2024/04/03 00:38:56;;;;;;;4.17;1.40;;;13.00;99.90;;;;;;5036257;28;20661;-78
2024/04/03 00:41:22;;;;;;;3.30;1.03;;;13.00;99.90;;;;;;5042788;28;20185;-78
2024/04/03 00:43:50;;;;;;;3.67;1.10;;;12.90;99.90;;;;;;5035726;28;20551;-78
2024/04/03 00:46:16;;;;;;;3.70;1.00;;;12.90;99.90;;;;;;5035470;28;20650;-78
2024/04/03 00:48:43;;;;;;;4.87;0.90;;;12.90;99.90;;;;;;5039769;28;20635;-78
2024/04/03 00:51:10;;;;;;;2.90;1.23;;;12.90;99.90;;;;;;5042880;28;20193;-78
2024/04/03 00:53:38;;;;;;;6.30;1.00;;;12.90;99.90;;;;;;5036463;28;20576;-78
2024/04/03 00:56:07;;;;;;;2.90;1.37;;;12.80;99.90;;;;;;5034110;28;20716;-78
2024/04/03 00:58:34;;;;;;;3.55;1.50;;;12.90;99.90;;;;;;5049276;28;20712;-78
2024/04/03 01:01:00;;;;;;;3.75;1.00;;;12.80;99.90;;;;;;5031953;28;20228;-77
2024/04/03 01:03:26;;;;;;;2.70;1.25;;;12.80;99.90;;;;;;5015170;28;20265;-77
2024/04/03 01:06:19;;;;;;;3.30;1.70;;;12.80;99.90;;;;;;5032938;28;20204;-77
2024/04/03 01:08:45;;;;;;;3.65;1.20;;;12.80;99.90;;;;;;5013067;28;20210;-77
2024/04/03 01:11:11;;;;;;;3.27;1.00;;;12.80;99.90;;;;;;5033058;28;20170;-77
2024/04/03 01:13:37;;;;;;;4.03;1.20;;;12.80;99.90;;;;;;5032539;28;20525;-77
2024/04/03 01:16:04;;;;;;;3.57;1.00;;;12.80;99.90;;;;;;5033189;28;20251;-77
2024/04/03 01:18:34;;;;;;;2.80;1.00;;;12.80;99.90;;;;;;5032106;28;20612;-77
2024/04/03 01:21:00;;;;;;;2.42;1.00;;;12.80;99.90;;;;;;5041171;28;20656;-77
2024/04/03 01:23:26;;;;;;;4.68;1.50;;;12.80;99.90;;;;;;5033948;28;20170;-77
2024/04/03 01:25:52;;;;;;;2.47;1.10;;;12.80;99.90;;;;;;5032379;28;20166;-77
2024/04/03 01:28:19;;;;;;;4.23;1.10;;;12.80;99.90;;;;;;5031958;28;20284;-78
2024/04/03 01:30:45;;;;;;;2.00;1.10;;;12.70;99.90;;;;;;5035084;28;20585;-77
2024/04/03 01:33:11;;;;;;;4.77;1.17;;;12.70;99.90;;;;;;5032243;28;20257;-77
2024/04/03 01:35:36;;;;;;;3.00;1.17;;;12.70;99.90;;;;;;5030572;28;20779;-76
2024/04/03 01:38:02;;;;;;;2.60;0.90;;;12.80;99.90;;;;;;5046272;28;20284;-76
2024/04/03 01:40:28;;;;;;;2.53;1.00;;;12.70;99.90;;;;;;5013863;28;20204;-76
2024/04/03 01:42:53;;;;;;;4.00;0.80;;;12.70;99.90;;;;;;5030461;28;20576;-76
2024/04/03 01:45:20;;;;;;;3.13;0.90;;;12.70;99.90;;;;;;5047226;28;20235;-76
2024/04/03 01:47:46;;;;;;;2.30;1.15;;;12.70;99.90;;;;;;5029767;28;20224;-76
2024/04/03 01:50:17;;;;;;;2.90;1.00;;;12.80;99.90;;;;;;5031665;28;20215;-76
2024/04/03 01:52:42;;;;;;;2.78;0.90;;;12.70;99.90;;;;;;5031565;28;20182;-76
2024/04/03 01:55:08;;;;;;;4.27;0.80;;;12.70;99.90;;;;;;5031508;28;20190;-76
2024/04/03 01:57:33;;;;;;;2.10;0.80;;;12.70;99.90;;;;;;5029750;28;20252;-77
2024/04/03 01:59:59;;;;;;;2.30;0.83;;;12.60;99.90;;;;;;5031379;28;20288;-76
2024/04/03 02:02:25;;;;;;;1.80;0.97;;;12.60;99.90;;;;;;5031343;28;20254;-76
2024/04/03 02:04:53;;;;;;;2.97;0.87;;;12.60;99.90;;;;;;5029930;28;20173;-75
2024/04/03 02:07:18;;;;;;;4.57;1.45;;;12.60;99.90;;;;;;5030683;28;20173;-76
2024/04/03 02:09:44;;;;;;;2.20;0.77;;;12.60;99.90;;;;;;5033195;28;20182;-77
2024/04/03 02:12:10;;;;;;;3.57;1.00;;;12.60;99.90;;;;;;5029882;28;20181;-77
2024/04/03 02:14:38;;;;;;;1.60;0.70;;;12.60;99.90;;;;;;5039339;28;20544;-77
2024/04/03 02:17:04;;;;;;;3.83;1.05;;;12.50;99.90;;;;;;5013208;28;20180;-77
2024/04/03 02:19:30;;;;;;;2.17;0.73;;;12.50;99.90;;;;;;5046410;28;20573;-77
2024/04/03 02:21:55;;;;;;;4.25;1.20;;;12.50;99.90;;;;;;5031580;28;20170;-77
2024/04/03 02:24:21;;;;;;;3.17;0.90;;;12.50;99.90;;;;;;5013281;28;20702;-76
2024/04/03 02:26:47;;;;;;;4.87;1.10;;;12.50;99.90;;;;;;5030699;28;20181;-76
2024/04/03 02:29:15;;;;;;;6.70;2.03;;;12.50;99.90;;;;;;5030934;28;20224;-76
2024/04/03 02:31:41;;;;;;;4.20;1.30;;;12.50;99.90;;;;;;5029534;28;20264;-77
2024/04/03 02:34:08;;;;;;;2.90;1.40;;;12.50;99.90;;;;;;5029609;28;20304;-77
2024/04/03 02:36:33;;;;;;;3.35;1.13;;;12.50;99.90;;;;;;5013196;28;20188;-77
2024/04/03 02:38:59;;;;;;;2.90;1.43;;;12.40;99.90;;;;;;5045964;28;20284;-77
2024/04/03 02:41:25;;;;;;;6.80;1.80;;;12.40;99.90;;;;;;5030969;28;20170;-77
2024/04/03 02:43:51;;;;;;;2.33;1.30;;;12.40;99.90;;;;;;5029704;28;20601;-77
2024/04/03 02:46:17;;;;;;;2.65;1.08;;;12.40;99.90;;;;;;5033795;28;20192;-77
2024/04/03 02:48:43;;;;;;;3.30;1.30;;;12.40;99.90;;;;;;5030018;28;20217;-76
2024/04/03 02:51:10;;;;;;;3.63;1.03;;;12.40;99.90;;;;;;5030923;28;20189;-76
2024/04/03 02:53:36;;;;;;;2.97;1.00;;;12.30;99.90;;;;;;5030605;28;20525;-76
2024/04/03 02:56:08;;;;;;;4.57;1.20;;;12.40;99.90;;;;;;5030533;28;20231;-78
2024/04/03 02:58:35;;;;;;;4.38;1.52;;;12.30;99.90;;;;;;5045526;28;20284;-78
2024/04/03 03:01:10;;;;;;;2.90;1.63;;;12.30;99.90;;;;;;5029376;28;20208;-77
2024/04/03 03:03:36;;;;;;;5.25;1.10;;;12.30;99.90;;;;;;5030763;28;20169;-78
2024/04/03 03:06:06;;;;;;;2.85;1.10;;;12.30;99.90;;;;;;5029531;28;20177;-75
2024/04/03 03:08:33;;;;;;;4.15;1.20;;;12.30;99.90;;;;;;5030263;28;20213;-75
2024/04/03 03:11:01;;;;;;;3.15;1.02;;;12.30;99.90;;;;;;5029523;28;20170;-75
2024/04/03 03:13:28;;;;;;;2.45;0.90;;;12.30;99.90;;;;;;5030634;28;20587;-75
2024/04/03 03:15:59;;;;;;;4.57;1.02;;;12.30;99.90;;;;;;5030703;28;20221;-76
2024/04/03 03:18:29;;;;;;;4.93;1.20;;;12.30;99.90;;;;;;5030247;28;20208;-76
2024/04/03 03:20:56;;;;;;;2.80;0.80;;;12.30;99.90;;;;;;5029367;28;20232;-76
2024/04/03 03:23:22;;;;;;;3.75;1.20;;;12.30;99.90;;;;;;5034176;28;20673;-76
2024/04/03 03:25:49;;;;;;;6.35;1.25;;;12.30;99.90;;;;;;5012728;28;20267;-76
2024/04/03 03:28:15;;;;;;;4.25;1.20;;;12.30;99.90;;;;;;5045588;28;20248;-76
2024/04/03 03:30:46;;;;;;;4.32;1.67;;;12.20;99.90;;;;;;5029269;28;20355;-76
2024/04/03 03:33:12;;;;;;;3.35;1.50;;;12.20;99.90;;;;;;5013017;28;20174;-77
2024/04/03 03:35:38;;;;;;;6.10;1.40;;;12.20;99.90;;;;;;5029203;28;20679;-77
2024/04/03 03:38:03;;;;;;;2.93;0.90;;;12.10;99.90;;;;;;5028972;28;20197;-76
2024/04/03 03:40:31;;;;;;;9.03;1.20;;;12.10;99.90;;;;;;5029205;28;20555;-76
2024/04/03 03:42:57;;;;;;;4.45;1.30;;;12.10;99.90;;;;;;5029286;28;20236;-76
2024/04/03 03:45:23;;;;;;;4.50;1.50;;;12.10;99.90;;;;;;5030588;28;20169;-75
2024/04/03 03:47:49;;;;;;;1.77;0.90;;;12.00;99.90;;;;;;5029987;28;20280;-76
2024/04/03 03:53:00;;;;;;;5.47;1.30;;;12.10;99.90;;;;;;5029321;28;20570;-76
2024/04/03 03:55:29;;;;;;;5.85;1.23;;;12.10;99.90;;;;;;5031294;28;20236;-75
2024/04/03 03:57:56;;;;;;;3.88;0.90;;;12.10;99.90;;;;;;5030060;28;20635;-76
2024/04/03 04:00:22;;;;;;;2.17;1.00;;;12.10;99.90;;;;;;5033602;28;20213;-76
2024/04/03 04:02:51;;;;;;;4.33;1.67;;;12.10;99.90;;;;;;5032432;28;20182;-77
2024/04/03 04:05:20;;;;;;;9.02;1.20;;;12.10;99.90;;;;;;5033737;28;20237;-77
2024/04/03 04:07:47;;;;;;;2.42;1.10;;;12.10;99.90;;;;;;5032204;28;20193;-76
2024/04/03 04:10:13;;;;;;;5.75;1.77;;;12.10;99.90;;;;;;5049480;28;20181;-76
2024/04/03 04:12:39;;;;;;;2.05;0.85;;;12.10;99.90;;;;;;5032507;28;20188;-76
2024/04/03 04:15:05;;;;;;;6.43;1.13;;;12.10;99.90;;;;;;5032809;28;20181;-77
2024/04/03 04:17:31;;;;;;;3.75;1.20;;;12.10;99.90;;;;;;5040094;28;20615;-76
2024/04/03 04:19:56;;;;;;;3.03;1.30;;;12.10;99.90;;;;;;5033886;28;20247;-76
2024/04/03 04:22:22;;;;;;;4.40;1.20;;;12.10;99.90;;;;;;5032086;28;20245;-76
2024/04/03 04:24:49;;;;;;;5.20;1.10;;;12.10;99.90;;;;;;5031349;28;20184;-76
2024/04/03 04:27:15;;;;;;;6.75;1.80;;;12.10;99.90;;;;;;5028547;28;20189;-76
2024/04/03 04:29:40;;;;;;;3.30;1.10;;;12.10;99.90;;;;;;5032116;28;20576;-76
2024/04/03 04:32:10;;;;;;;3.10;1.10;;;12.10;99.90;;;;;;5032261;28;20273;-76
2024/04/03 04:34:42;;;;;;;5.15;1.33;;;12.10;99.90;;;;;;5033387;28;20174;-75
2024/04/03 04:37:08;;;;;;;4.93;1.13;;;12.10;99.90;;;;;;5040552;28;20178;-75
2024/04/03 04:39:35;;;;;;;5.38;1.30;;;12.10;99.90;;;;;;5039779;28;20204;-75
2024/04/03 04:42:00;;;;;;;3.78;1.10;;;12.10;99.90;;;;;;5015521;28;20177;-75
2024/04/03 04:44:26;;;;;;;4.17;1.53;;;12.10;99.90;;;;;;5037642;28;20639;-76
2024/04/03 04:46:56;;;;;;;3.70;1.10;;;12.00;99.90;;;;;;5032751;28;20166;-75
2024/04/03 04:49:22;;;;;;;7.57;1.50;;;12.10;99.90;;;;;;5032857;28;20205;-75
2024/04/03 04:51:49;;;;;;;3.95;1.33;;;12.10;99.90;;;;;;5032786;28;20216;-76
2024/04/03 04:54:16;;;;;;;5.03;1.40;;;12.10;99.90;;;;;;5032889;28;20208;-76
2024/04/03 04:56:45;;;;;;;4.15;1.65;;;12.00;99.90;;;;;;5031639;28;20268;-76
2024/04/03 04:59:11;;;;;;;5.07;1.30;;;12.00;99.90;;;;;;5032898;28;20201;-75
2024/04/03 05:01:39;;;;;;;4.07;1.00;;;12.00;99.90;;;;;;5032681;28;20174;-75
2024/04/03 05:04:11;;;;;;;11.30;1.83;;;12.00;99.90;;;;;;5042878;28;20181;-79
2024/04/03 05:06:37;;;;;;;5.07;1.27;;;12.00;99.90;;;;;;5033365;28;20228;-76
2024/04/03 05:09:03;;;;;;;5.10;1.50;;;12.00;99.90;;;;;;5024050;28;20212;-76
2024/04/03 05:11:29;;;;;;;3.75;1.70;;;12.00;99.90;;;;;;5031091;28;20672;-76
2024/04/03 05:13:55;;;;;;;4.72;1.10;;;12.00;99.90;;;;;;5031401;28;20170;-76
2024/04/03 05:16:21;;;;;;;3.92;1.20;;;12.00;99.90;;;;;;5032578;28;20509;-77
2024/04/03 05:18:49;;;;;;;4.67;1.20;;;12.00;99.90;;;;;;5031986;28;20200;-78
2024/04/03 05:21:16;;;;;;;5.30;1.30;;;12.00;99.90;;;;;;5032430;28;20605;-78
2024/04/03 05:23:43;;;;;;;5.30;1.40;;;12.00;99.90;;;;;;5031060;28;20185;-78
2024/04/03 05:26:13;;;;;;;2.42;1.08;;;12.00;99.90;;;;;;5031207;28;20181;-77
2024/04/03 05:28:39;;;;;;;3.88;1.17;;;11.90;99.90;;;;;;5055542;28;20208;-77
2024/04/03 05:31:06;;;;;;;4.07;1.13;;;11.90;99.90;;;;;;5032141;28;20587;-77
2024/04/03 05:33:33;;;;;;;3.25;1.00;;;11.90;99.90;;;;;;5032220;28;20223;-77
2024/04/03 05:36:03;;;;;;;4.15;1.83;;;11.90;99.90;;;;;;5030699;28;20205;-77
2024/04/03 05:38:29;;;;;;;2.85;0.90;;;11.90;99.90;;;;;;5031867;28;20190;-77
2024/04/03 05:40:55;;;;;;;3.40;1.00;;;11.90;99.90;;;;;;5030574;28;20202;-77
2024/04/03 05:43:23;;;;;;;2.70;1.20;;;11.90;99.90;;;;;;5027354;28;20178;-77
2024/04/03 05:45:53;;;;;;;7.50;1.98;;;11.90;99.90;;;;;;5028699;28;20169;-77
2024/04/03 05:48:23;;;;;;;3.40;1.10;;;11.90;99.90;;;;;;5030428;28;20288;-77
2024/04/03 05:51:07;;;;;;;5.03;1.60;;;11.90;99.90;;;;;;5016918;28;20623;-77
2024/04/03 05:53:34;;;;;;;3.55;1.30;;;11.90;99.90;;;;;;5031708;28;20587;-77
2024/04/03 05:56:02;;;;;;;3.72;1.20;;;11.90;99.90;;;;;;5038397;28;20181;-77
2024/04/03 05:58:28;;;;;;;2.80;1.30;;;11.90;99.90;;;;;;5029919;28;20616;-77
2024/04/03 06:00:55;;;;;;;5.23;1.30;;;11.90;99.90;;;;;;5031409;28;20205;-77
2024/04/03 06:03:21;;;;;;;3.13;1.60;;;11.90;99.90;;;;;;5031367;28;20663;-78
2024/04/03 06:05:54;;;;;;;2.33;1.25;;;11.90;99.90;;;;;;5031269;28;20174;-79
2024/04/03 06:08:20;;;;;;;3.90;1.13;;;11.90;99.90;;;;;;5029722;28;20247;-79
2024/04/03 06:10:46;;;;;;;3.78;1.60;;;12.00;99.90;;;;;;5031284;28;20204;-80
2024/04/03 06:13:12;;;;;;;5.78;1.42;;;11.90;99.90;;;;;;5030454;28;20546;-79
2024/04/03 06:15:38;;;;;;;4.43;1.20;;;11.90;99.90;;;;;;5032685;28;20172;-79
2024/04/03 06:18:04;;;;;;;4.97;1.27;;;11.90;99.90;;;;;;5030629;28;20198;-79
2024/04/03 06:20:30;;;;;;;4.32;1.92;;;11.80;99.90;;;;;;5038219;28;20209;-81
2024/04/03 06:22:56;;;;;;;3.08;1.60;;;11.90;99.90;;;;;;5032742;28;20185;-80
2024/04/03 06:25:22;;;;;;;6.07;1.47;;;11.80;99.90;;;;;;5031139;28;20237;-80
2024/04/03 06:27:49;;;;;;;3.23;1.10;;;11.80;99.90;;;;;;5031060;28;20604;-79
2024/04/03 06:30:15;;;;;;;7.30;1.95;;;11.80;99.90;;;;;;5031381;28;20672;-80
2024/04/03 06:32:42;;;;;;;5.68;1.20;;;11.80;99.90;;;;;;5030489;28;20276;-79
2024/04/03 06:35:08;;;;;;;4.63;1.30;;;11.80;99.90;;;;;;5022299;28;20185;-80
2024/04/03 06:37:34;;;;;;;2.88;1.30;;;11.80;99.90;;;;;;5033125;28;20727;-80
2024/04/03 06:40:00;;;;;;;6.43;1.43;;;11.80;99.90;;;;;;5033357;28;20221;-80
2024/04/03 06:42:27;;;;;;;5.93;1.40;;;11.80;99.90;;;;;;5046059;28;20580;-80
2024/04/03 06:44:54;;;;;;;2.83;1.35;;;11.70;99.90;;;;;;5030707;28;20197;-79
2024/04/03 06:47:19;;;;;;;6.28;1.15;;;11.80;99.90;;;;;;5030391;28;20231;-80
2024/04/03 06:49:45;;;;;;;4.73;1.23;;;11.70;99.90;;;;;;5031053;28;20560;-78
2024/04/03 06:52:11;;;;;;;4.07;1.13;;;11.70;99.90;;;;;;5030575;28;20702;-79
2024/04/03 06:54:37;;;;;;;3.53;1.10;;;11.80;99.90;;;;;;5030453;28;20545;-78
2024/04/03 06:57:07;;;;;;;4.45;1.50;;;11.80;99.90;;;;;;5028953;28;20464;-78
2024/04/03 06:59:32;;;;;;;6.28;1.55;;;11.80;99.90;;;;;;5029248;28;20711;-78
2024/04/03 07:01:58;;;;;;;3.20;0.80;;;11.80;99.90;;;;;;5054197;28;20173;-78
2024/04/03 07:04:24;;;;;;;6.50;1.60;;;11.80;99.90;;;;;;5039722;23;20178;-75
2024/04/03 07:06:49;;;;;;;5.83;1.57;;;11.90;99.90;;;;;;4931342;29;20212;-75
2024/04/03 07:09:15;;;;;;;5.50;1.70;;;11.80;99.90;;;;;;4990088;28;20184;-75
2024/04/03 07:11:41;;;;;;;5.43;1.33;;;11.80;99.90;;;;;;4949872;28;20200;-75
2024/04/03 07:14:06;;;;;;;5.40;1.50;;;11.80;99.90;;;;;;4948420;28;20767;-74
2024/04/03 07:16:32;;;;;;;2.90;1.10;;;11.80;99.90;;;;;;4932434;28;20279;-74
2024/04/03 07:18:59;;;;;;;4.00;1.10;;;11.80;99.90;;;;;;5031274;28;20547;-74
2024/04/03 07:21:25;;;;;;;11.77;1.83;;;11.80;99.90;;;;;;4948251;28;20176;-74
2024/04/03 07:23:50;;;;;;;3.90;1.07;;;11.80;99.90;;;;;;4948067;28;20202;-73
2024/04/03 07:26:19;;;;;;;4.27;1.13;;;11.90;99.90;;;;;;4948266;28;20662;-73
2024/04/03 07:28:45;;;;;;;4.20;1.40;;;11.80;99.90;;;;;;4949466;28;20184;-73
2024/04/03 07:31:11;;;;;;;5.53;1.25;;;11.90;99.90;;;;;;4961040;28;20176;-74
2024/04/03 07:33:37;;;;;;;6.00;1.13;;;11.90;99.90;;;;;;4948989;28;20656;-74
2024/04/03 07:36:04;;;;;;;4.33;1.37;;;11.90;99.90;;;;;;4950102;28;20699;-74
2024/04/03 07:38:30;;;;;;;6.32;1.30;;;11.90;99.90;;;;;;4935656;28;20663;-74
2024/04/03 07:40:57;;;;;;;4.23;1.50;;;11.90;99.90;;;;;;4959681;28;20223;-74
2024/04/03 07:43:23;;;;;;;5.50;1.30;;;11.90;99.90;;;;;;4935529;29;20231;-74
2024/04/03 07:45:55;;;;;;;3.33;1.20;;;11.90;99.90;;;;;;4984066;28;20580;-74
2024/04/03 07:48:21;;;;;;;5.15;1.80;;;11.90;99.90;;;;;;4975317;28;20641;-74
2024/04/03 07:50:46;;;;;;;6.90;1.33;;;12.00;99.90;;;;;;4968784;28;20824;-74
2024/04/03 07:53:12;;;;;;;6.40;1.50;;;12.00;99.90;;;;;;4951464;28;20184;-74
2024/04/03 07:55:39;;;;;;;5.03;1.23;;;12.00;99.90;;;;;;4994405;28;20208;-74
2024/04/03 07:58:05;;;;;;;6.75;1.27;;;12.10;99.90;;;;;;4952485;28;20176;-74
2024/04/03 08:00:31;;;;;;;4.00;1.27;;;12.10;99.90;;;;;;4951145;28;20219;-74
2024/04/03 08:02:57;;;;;;;5.23;1.60;;;12.20;99.90;;;;;;4935373;28;20734;-74
2024/04/03 08:05:23;;;;;;;6.75;1.92;;;12.20;99.90;;;;;;4992852;28;20290;-74
2024/04/03 08:07:49;;;;;;;4.00;1.00;;;12.30;99.90;;;;;;4936159;28;20628;-74
2024/04/03 08:10:14;;;;;;;2.53;1.00;;;12.30;99.90;;;;;;4976087;28;20181;-73
2024/04/03 08:12:41;;;;;;;2.80;0.90;;;12.30;99.90;;;;;;4952360;28;20188;-74
2024/04/03 08:15:11;;;;;;;5.18;1.20;;;12.40;99.90;;;;;;4951169;28;20208;-74
2024/04/03 08:17:38;;;;;;;3.23;0.93;;;12.50;99.90;;;;;;4957635;28;20172;-72
2024/04/03 08:20:04;;;;;;;8.73;1.40;;;12.60;99.90;;;;;;4953660;28;20659;-72
2024/04/03 08:22:30;;;;;;;2.33;0.93;;;12.70;99.90;;;;;;4952380;28;20594;-72
2024/04/03 08:24:56;;;;;;;5.07;0.90;;;12.80;99.90;;;;;;4959138;28;20702;-72
2024/04/03 08:27:21;;;;;;;2.73;1.10;;;12.80;99.90;;;;;;4948877;28;20695;-72
2024/04/03 08:29:49;;;;;;;4.90;1.30;;;12.90;99.90;;;;;;4952301;28;20904;-72
2024/04/03 08:32:18;;;;;;;3.70;1.10;;;12.90;99.90;;;;;;4976520;28;20183;-72
2024/04/03 08:34:44;;;;;;;2.57;1.10;;;12.90;99.90;;;;;;4950905;28;20987;-73
2024/04/03 08:37:12;;;;;;;4.13;1.00;;;13.00;99.90;;;;;;4958808;28;20687;-72
2024/04/03 08:39:38;;;;;;;2.23;1.33;;;13.00;99.90;;;;;;4965347;28;20634;-72
2024/04/03 08:42:05;;;;;;;2.87;0.93;;;13.00;99.90;;;;;;4994118;28;20596;-73
2024/04/03 08:44:35;;;;;;;4.20;1.40;;;13.00;99.90;;;;;;5017094;28;20642;-72
2024/04/03 08:47:02;;;;;;;2.50;1.20;;;13.00;99.90;;;;;;4959918;28;20612;-72
2024/04/03 08:49:30;;;;;;;6.40;1.17;;;13.00;99.90;;;;;;5053170;28;20583;-72
2024/04/03 08:52:06;;;;;;;2.53;0.90;;;13.10;99.90;;;;;;4963723;28;20272;-72
2024/04/03 08:54:33;;;;;;;2.47;1.00;;;13.10;99.90;;;;;;4934442;28;21236;-73
2024/04/03 08:57:03;;;;;;;2.50;1.10;;;13.10;99.90;;;;;;4955718;28;20594;-73
2024/04/03 08:59:34;;;;;;;2.50;1.10;;;13.10;99.90;;;;;;4950641;28;20644;-72
2024/04/03 09:01:59;;;;;;;1.93;1.00;;;13.10;99.90;;;;;;4950718;28;21155;-72
2024/04/03 09:04:25;;;;;;;4.43;1.20;;;13.10;99.90;;;;;;4959390;28;20588;-72
2024/04/03 09:06:51;;;;;;;2.83;1.00;;;13.10;99.90;;;;;;4951345;29;20640;-72
2024/04/03 09:09:21;;;;;;;2.87;1.00;;;13.10;99.90;;;;;;4951596;28;20588;-72
2024/04/03 09:11:50;;;;;;;2.27;0.80;;;13.10;99.90;;;;;;4951611;28;20562;-72
2024/04/03 09:14:23;;;;;;;2.27;0.93;;;13.10;99.90;;;;;;4950310;28;20954;-72
2024/04/03 09:16:49;;;;;;;2.90;0.90;;;13.10;99.90;;;;;;4951396;28;20596;-72
2024/04/03 09:19:14;;;;;;;3.17;1.20;;;13.10;99.90;;;;;;4959480;28;20576;-73
2024/04/03 09:21:41;;;;;;;3.30;0.90;;;13.10;99.90;;;;;;4950475;28;20626;-72
2024/04/03 09:24:10;;;;;;;4.35;0.88;;;13.10;99.90;;;;;;4992893;28;20299;-73
2024/04/03 09:26:46;;;;;;;2.73;1.00;;;13.20;99.90;;;;;;4959325;28;20223;-73
2024/04/03 09:29:15;;;;;;;2.93;0.90;;;13.20;99.90;;;;;;4957940;28;20600;-72
2024/04/03 09:31:44;;;;;;;2.80;0.97;;;13.20;99.90;;;;;;4934105;29;20600;-73
2024/04/03 09:34:11;;;;;;;2.60;0.90;;;13.30;99.90;;;;;;4966052;28;20587;-73
2024/04/03 09:36:36;;;;;;;3.60;0.90;;;13.40;99.90;;;;;;4957973;28;20685;-73
2024/04/03 09:39:03;;;;;;;3.00;0.80;;;13.40;99.90;;;;;;4949872;28;20679;-73
2024/04/03 09:41:33;;;;;;;1.57;0.73;;;13.40;99.90;;;;;;4933942;29;20611;-74
2024/04/03 09:44:01;;;;;;;1.90;0.73;;;13.40;99.90;;;;;;4951169;28;20592;-72
2024/04/03 09:46:33;;;;;;;2.58;1.00;;;13.50;99.90;;;;;;4948941;28;20981;-73
2024/04/03 09:49:03;;;;;;;1.93;0.80;;;13.60;99.90;;;;;;4960281;28;20199;-73
2024/04/03 09:51:29;;;;;;;1.97;0.70;;;13.70;99.90;;;;;;4984503;28;20592;-73
2024/04/03 09:53:55;;;;;;;2.03;0.80;;;13.80;99.90;;;;;;4933491;29;20620;-73
2024/04/03 09:56:22;;;;;;;1.73;0.70;;;13.90;99.90;;;;;;4933548;28;20635;-73
2024/04/03 09:58:50;;;;;;;1.30;0.60;;;14.00;99.90;;;;;;4950084;28;20991;-72
2024/04/03 10:01:17;;;;;;;1.47;0.63;;;14.00;99.90;;;;;;4953279;28;20651;-72
2024/04/03 10:03:43;;;;;;;1.30;0.67;;;14.10;99.90;;;;;;4950535;28;20599;-73
2024/04/03 10:06:14;;;;;;;1.50;0.60;;;14.20;99.90;;;;;;4951175;28;20662;-73
2024/04/03 10:08:41;;;;;;;4.33;0.83;;;14.30;99.90;;;;;;4950349;28;20675;-73
2024/04/03 10:11:10;;;;;;;3.20;1.07;;;14.50;99.90;;;;;;4950984;28;20596;-73
2024/04/03 10:13:40;;;;;;;1.23;0.60;;;14.60;99.90;;;;;;4949413;29;20592;-73
2024/04/03 10:16:12;;;;;;;1.50;0.60;;;14.80;99.90;;;;;;4950595;28;20715;-73
2024/04/03 10:18:40;;;;;;;1.50;0.70;;;15.10;99.90;;;;;;4955121;28;20591;-73
2024/04/03 10:21:10;;;;;;;1.53;0.60;;;15.30;99.90;;;;;;4950811;28;20636;-73
2024/04/03 10:23:48;;;;;;;2.17;0.70;;;15.50;99.90;;;;;;4965012;28;21132;-72
2024/04/03 10:26:17;;;;;;;1.40;0.60;;;15.70;99.90;;;;;;4969699;28;20701;-73
2024/04/03 10:28:45;;;;;;;1.90;0.80;;;15.80;99.90;;;;;;5004484;28;21014;-73
2024/04/03 10:31:18;;;;;;;1.63;0.63;;;15.90;99.90;;;;;;4962998;28;20952;-73
2024/04/03 10:33:45;;;;;;;1.67;0.70;;;16.00;99.90;;;;;;4933147;29;20635;-73
2024/04/03 10:36:11;;;;;;;1.70;0.80;;;16.10;99.90;;;;;;4948689;28;21212;-73
2024/04/03 10:38:37;;;;;;;1.50;0.80;;;16.20;99.90;;;;;;4950715;28;20588;-73
2024/04/03 10:41:04;;;;;;;1.73;0.70;;;16.40;99.90;;;;;;4946454;28;20651;-73
2024/04/03 10:43:30;;;;;;;2.47;0.60;;;16.40;99.90;;;;;;5023121;28;20946;-73
2024/04/03 10:45:57;;;;;;;1.67;0.60;;;16.50;99.90;;;;;;4956666;28;20638;-74
2024/04/03 10:48:23;;;;;;;2.10;0.70;;;16.50;99.90;;;;;;4952136;28;20179;-74
2024/04/03 10:50:50;;;;;;;1.40;0.50;;;16.50;99.90;;;;;;4954839;28;20592;-73
2024/04/03 10:53:16;;;;;;;1.40;0.60;;;16.60;99.90;;;;;;4932960;28;20650;-74
2024/04/03 10:55:42;;;;;;;1.33;0.60;;;16.70;99.90;;;;;;4949300;28;20620;-74
2024/04/03 10:58:09;;;;;;;1.30;0.50;;;16.80;99.90;;;;;;4948801;29;20682;-74
2024/04/03 11:00:39;;;;;;;1.50;0.57;;;17.00;99.90;;;;;;4948870;28;20636;-74
2024/04/03 11:03:09;;;;;;;1.40;0.50;;;17.00;99.90;;;;;;4948718;28;21167;-74
2024/04/03 11:05:36;;;;;;;1.50;0.50;;;17.00;99.90;;;;;;4948339;28;20727;-74
2024/04/03 11:08:03;;;;;;;1.70;0.60;;;17.00;99.90;;;;;;4948440;28;20985;-74
2024/04/03 11:10:30;;;;;;;1.30;0.50;;;17.10;99.90;;;;;;4960859;28;20638;-75
2024/04/03 11:13:03;;;;;;;1.30;0.40;;;17.10;99.90;;;;;;4952096;29;20591;-75
2024/04/03 11:15:29;;;;;;;1.40;0.50;;;17.00;99.90;;;;;;4920415;29;20619;-74
2024/04/03 11:17:56;;;;;;;1.53;0.50;;;17.00;99.90;;;;;;4952905;28;20650;-74
2024/04/03 11:20:25;;;;;;;1.53;0.50;;;16.90;99.90;;;;;;4951515;28;20639;-74
2024/04/03 11:22:55;;;;;;;1.30;0.50;;;16.90;99.90;;;;;;4959576;28;20990;-75
2024/04/03 11:25:24;;;;;;;1.40;0.50;;;16.90;99.90;;;;;;4947014;28;20628;-74
2024/04/03 11:27:50;;;;;;;1.57;0.50;;;16.80;99.90;;;;;;4951227;28;20666;-74
2024/04/03 11:30:16;;;;;;;1.20;0.50;;;16.80;99.90;;;;;;5007304;28;21034;-75
2024/04/03 11:32:42;;;;;;;1.73;0.40;;;16.80;99.90;;;;;;5054320;28;20595;-74
2024/04/03 11:35:10;;;;;;;1.30;0.47;;;16.80;99.90;;;;;;4963547;28;20295;-74
2024/04/03 11:37:36;;;;;;;1.80;0.40;;;16.80;99.90;;;;;;4960744;28;20587;-75
2024/04/03 11:40:04;;;;;;;1.20;0.40;;;16.80;99.90;;;;;;4951376;28;20746;-74
2024/04/03 11:42:36;;;;;;;1.30;0.50;;;16.80;99.90;;;;;;4951434;28;20169;-74
2024/04/03 11:45:05;;;;;;;2.00;0.83;;;16.80;99.90;;;;;;4934987;28;20616;-74
2024/04/03 11:47:34;;;;;;;1.23;0.40;;;16.80;99.90;;;;;;4952311;28;20683;-74
2024/04/03 11:50:02;;;;;;;2.00;0.60;;;16.90;99.90;;;;;;4935205;28;21161;-74
2024/04/03 11:52:27;;;;;;;1.30;0.50;;;16.90;99.90;;;;;;4935431;28;20650;-74
2024/04/03 11:54:55;;;;;;;1.80;0.50;;;16.90;99.90;;;;;;4935077;29;20635;-74
2024/04/03 11:57:21;;;;;;;1.50;0.60;;;16.90;99.90;;;;;;4951044;28;20207;-73
2024/04/03 11:59:48;;;;;;;1.60;0.60;;;16.90;99.90;;;;;;4951030;28;20746;-75
2024/04/03 12:02:14;;;;;;;1.40;0.50;;;16.90;99.90;;;;;;4951069;28;20679;-75
2024/04/03 12:04:40;;;;;;;1.93;0.50;;;16.80;99.90;;;;;;4948453;28;21056;-75
2024/04/03 12:07:06;;;;;;;1.40;0.50;;;16.70;99.90;;;;;;4954589;28;20550;-75
2024/04/03 12:09:32;;;;;;;1.20;0.50;;;16.60;99.90;;;;;;5053329;28;20580;-74
2024/04/03 12:11:57;;;;;;;1.40;0.50;;;16.60;99.90;;;;;;4970065;28;20185;-75
2024/04/03 12:14:23;;;;;;;1.90;0.50;;;16.60;99.90;;;;;;4951946;28;20552;-74
2024/04/03 12:16:52;;;;;;;1.60;0.50;;;16.60;99.90;;;;;;4957479;28;20207;-74
2024/04/03 12:19:30;;;;;;;1.70;0.57;;;16.50;99.90;;;;;;4967394;28;20551;-74
2024/04/03 12:21:55;;;;;;;1.20;0.50;;;16.40;99.90;;;;;;5013256;28;20961;-74
2024/04/03 12:24:22;;;;;;;2.40;0.90;;;16.30;99.90;;;;;;4951681;28;20599;-75
2024/04/03 12:26:48;;;;;;;1.70;0.80;;;16.20;99.90;;;;;;4946893;28;20185;-74
2024/04/03 12:29:16;;;;;;;1.70;0.60;;;16.20;99.90;;;;;;4951571;28;20716;-75
2024/04/03 12:31:42;;;;;;;1.50;0.50;;;16.10;99.90;;;;;;4980288;28;20583;-74
2024/04/03 12:34:12;;;;;;;2.57;0.70;;;16.10;99.90;;;;;;4964360;28;20598;-75
2024/04/03 12:36:37;;;;;;;1.30;0.53;;;16.20;99.90;;;;;;4950424;28;20793;-75
2024/04/03 12:39:04;;;;;;;1.97;0.60;;;16.20;99.90;;;;;;4951593;28;20607;-75
2024/04/03 12:41:30;;;;;;;1.30;0.60;;;16.10;99.90;;;;;;5034946;28;21104;-74
2024/04/03 12:43:56;;;;;;;1.30;0.50;;;16.10;99.90;;;;;;4971773;28;20606;-76
2024/04/03 12:46:22;;;;;;;1.30;0.50;;;16.20;99.90;;;;;;4959218;28;20722;-75
2024/04/03 12:48:48;;;;;;;2.23;0.50;;;16.20;99.90;;;;;;4951460;28;20588;-75